createdAt,value
2022-08-07T00:01:44.288Z,1.60
2022-08-07T00:04:11.191Z,1.77
2022-08-07T00:06:51.162Z,1.60
2022-08-07T00:09:29.247Z,1.50
2022-08-07T00:12:04.877Z,2.03
2022-08-07T00:14:33.991Z,1.80
2022-08-07T00:17:03.730Z,1.57
2022-08-07T00:20:02.487Z,1.53
2022-08-07T00:22:35.251Z,5.50
2022-08-07T00:25:06.985Z,6.63
2022-08-07T00:27:52.255Z,6.67
2022-08-07T00:30:26.983Z,5.30
2022-08-07T00:32:58.268Z,3.10
2022-08-07T00:35:30.240Z,3.17
2022-08-07T00:38:02.701Z,3.30
2022-08-07T00:40:39.028Z,1.87
2022-08-07T00:43:58.661Z,1.67
2022-08-07T00:46:02.351Z,1.60
2022-08-07T00:48:32.607Z,1.77
2022-08-07T00:51:03.731Z,1.70
2022-08-07T00:53:39.387Z,1.67
2022-08-07T00:56:19.161Z,1.40
2022-08-07T00:58:49.720Z,1.57
2022-08-07T01:01:20.237Z,1.80
2022-08-07T01:03:56.508Z,1.60
2022-08-07T01:06:30.426Z,1.50
2022-08-07T01:09:02.796Z,1.47
2022-08-07T01:12:09.538Z,1.97
2022-08-07T01:14:28.388Z,1.37
2022-08-07T01:16:58.272Z,2.30
2022-08-07T01:19:32.611Z,1.70
2022-08-07T01:22:03.872Z,2.30
2022-08-07T01:24:38.479Z,1.93
2022-08-07T01:27:29.140Z,2.20
2022-08-07T01:29:56.067Z,1.43
2022-08-07T01:32:24.959Z,2.03
2022-08-07T01:34:56.065Z,1.37
2022-08-07T01:37:28.030Z,1.70
2022-08-07T01:39:59.961Z,1.60
2022-08-07T01:42:39.442Z,2.33
2022-08-07T01:45:22.806Z,1.50
2022-08-07T01:48:21.518Z,1.60
2022-08-07T01:50:58.912Z,1.47
2022-08-07T01:54:00.789Z,1.40
2022-08-07T01:56:25.452Z,1.50
2022-08-07T01:59:02.258Z,1.80
2022-08-07T02:01:59.851Z,1.50
2022-08-07T02:04:28.660Z,1.60
2022-08-07T02:07:00.126Z,1.50
2022-08-07T02:09:33.791Z,1.90
2022-08-07T02:12:29.335Z,1.67
2022-08-07T02:15:01.746Z,1.57
2022-08-07T02:17:37.129Z,1.53
2022-08-07T02:20:17.421Z,1.27
2022-08-07T02:22:55.102Z,1.30
2022-08-07T02:26:10.874Z,1.50
2022-08-07T02:28:24.542Z,1.40
2022-08-07T02:30:55.141Z,1.77
2022-08-07T02:33:41.844Z,1.80
2022-08-07T02:36:30.362Z,1.43
2022-08-07T02:39:00.627Z,1.63
2022-08-07T02:41:33.561Z,1.73
2022-08-07T02:44:06.499Z,1.70
2022-08-07T02:46:36.812Z,1.23
2022-08-07T02:49:05.939Z,1.37
2022-08-07T02:51:49.734Z,1.20
2022-08-07T02:54:21.811Z,1.40
2022-08-07T02:56:56.260Z,1.50
2022-08-07T02:59:27.405Z,1.60
2022-08-07T03:01:57.569Z,1.30
2022-08-07T03:04:30.876Z,1.83
2022-08-07T03:07:07.112Z,1.80
2022-08-07T03:09:43.838Z,1.30
2022-08-07T03:12:22.174Z,2.10
2022-08-07T03:14:52.882Z,1.40
2022-08-07T03:17:22.170Z,1.80
2022-08-07T03:19:54.452Z,1.50
2022-08-07T03:22:29.523Z,1.10
2022-08-07T03:25:00.982Z,1.60
2022-08-07T03:27:59.712Z,1.57
2022-08-07T03:30:20.514Z,1.73
2022-08-07T03:32:58.505Z,1.40
2022-08-07T03:35:43.815Z,1.60
2022-08-07T03:38:21.179Z,1.80
2022-08-07T03:41:00.369Z,1.30
2022-08-07T03:43:33.075Z,1.90
2022-08-07T03:46:10.434Z,1.53
2022-08-07T03:49:02.548Z,1.60
2022-08-07T03:51:47.437Z,1.63
2022-08-07T03:54:36.187Z,1.70
2022-08-07T03:57:11.846Z,1.43
2022-08-07T04:00:03.837Z,1.40
2022-08-07T04:02:33.148Z,1.50
2022-08-07T04:05:01.917Z,1.50
2022-08-07T04:07:35.828Z,1.27
2022-08-07T04:10:15.517Z,1.50
2022-08-07T04:12:44.593Z,1.50
2022-08-07T04:15:15.049Z,1.27
2022-08-07T04:18:57.257Z,1.40
2022-08-07T04:20:35.172Z,1.60
2022-08-07T04:23:06.131Z,1.30
2022-08-07T04:25:39.386Z,1.43
2022-08-07T04:28:13.542Z,1.60
2022-08-07T04:30:55.331Z,1.47
2022-08-07T04:33:27.104Z,2.33
2022-08-07T04:35:56.789Z,1.93
2022-08-07T04:38:27.338Z,1.30
2022-08-07T04:40:56.681Z,1.43
2022-08-07T04:44:10.625Z,1.90
2022-08-07T04:46:29.320Z,1.43
2022-08-07T04:49:17.531Z,1.50
2022-08-07T04:51:55.771Z,1.40
2022-08-07T04:54:31.706Z,1.60
2022-08-07T04:58:10.084Z,1.67
2022-08-07T05:00:11.306Z,1.73
2022-08-07T05:02:51.560Z,1.40
2022-08-07T05:05:53.155Z,1.53
2022-08-07T05:08:17.285Z,1.60
2022-08-07T05:11:11.905Z,1.37
2022-08-07T05:14:54.220Z,1.53
2022-08-07T05:16:47.539Z,1.67
2022-08-07T05:19:32.707Z,1.70
2022-08-07T05:22:26.829Z,1.60
2022-08-07T05:24:59.548Z,1.50
2022-08-07T05:28:16.515Z,1.80
2022-08-07T05:30:30.027Z,1.53
2022-08-07T05:33:03.361Z,1.80
2022-08-07T05:35:41.689Z,1.30
2022-08-07T05:38:12.710Z,2.00
2022-08-07T05:41:05.310Z,1.70
2022-08-07T05:43:49.718Z,1.40
2022-08-07T05:46:30.427Z,1.90
2022-08-07T05:48:59.816Z,1.60
2022-08-07T05:51:31.414Z,1.90
2022-08-07T05:54:09.726Z,2.00
2022-08-07T05:56:51.336Z,2.00
2022-08-07T05:59:20.971Z,2.27
2022-08-07T06:01:51.496Z,2.20
2022-08-07T06:04:21.324Z,2.10
2022-08-07T06:07:04.444Z,2.03
2022-08-07T06:10:04.157Z,2.27
2022-08-07T06:12:31.673Z,2.10
2022-08-07T06:15:05.732Z,2.00
2022-08-07T06:17:38.248Z,2.60
2022-08-07T06:20:12.681Z,2.03
2022-08-07T06:23:02.118Z,1.90
2022-08-07T06:25:54.028Z,2.63
2022-08-07T06:28:28.127Z,2.33
2022-08-07T06:30:58.423Z,2.73
2022-08-07T06:33:27.366Z,2.10
2022-08-07T06:36:12.201Z,2.17
2022-08-07T06:38:51.614Z,2.50
2022-08-07T06:42:00.552Z,2.50
2022-08-07T06:44:24.247Z,2.20
2022-08-07T06:47:10.153Z,2.57
2022-08-07T06:49:51.888Z,2.53
2022-08-07T06:52:31.825Z,2.30
2022-08-07T06:55:32.353Z,2.23
2022-08-07T06:58:04.821Z,1.90
2022-08-07T07:00:36.864Z,2.47
2022-08-07T07:03:08.668Z,2.00
2022-08-07T07:06:03.981Z,1.90
2022-08-07T07:08:33.549Z,1.97
2022-08-07T07:11:13.183Z,1.50
2022-08-07T07:14:01.345Z,1.73
2022-08-07T07:16:49.459Z,1.30
2022-08-07T07:19:55.698Z,1.93
2022-08-07T07:22:36.215Z,1.50
2022-08-07T07:26:30.564Z,1.50
2022-08-07T07:28:03.088Z,1.20
2022-08-07T07:30:40.157Z,1.40
2022-08-07T07:33:12.388Z,1.30
2022-08-07T07:36:04.169Z,1.50
2022-08-07T07:38:36.057Z,1.37
2022-08-07T07:41:08.548Z,1.00
2022-08-07T07:44:13.772Z,1.60
2022-08-07T07:46:37.964Z,1.10
2022-08-07T07:50:29.732Z,1.30
2022-08-07T07:52:15.837Z,1.10
2022-08-07T07:54:51.462Z,1.20
2022-08-07T07:57:52.586Z,1.17
2022-08-07T08:00:29.167Z,1.00
2022-08-07T08:03:06.306Z,1.00
2022-08-07T08:05:54.496Z,1.20
2022-08-07T08:08:34.862Z,1.20
2022-08-07T08:11:16.173Z,1.10
2022-08-07T08:13:56.393Z,0.87
2022-08-07T08:16:31.121Z,1.20
2022-08-07T08:19:17.224Z,1.10
2022-08-07T08:22:06.305Z,1.00
2022-08-07T08:25:18.690Z,1.50
2022-08-07T08:27:57.154Z,1.20
2022-08-07T08:30:34.810Z,1.10
2022-08-07T08:33:10.526Z,0.90
2022-08-07T08:35:49.690Z,1.23
2022-08-07T08:38:29.528Z,0.90
2022-08-07T08:41:03.838Z,1.17
2022-08-07T08:43:41.995Z,1.10
2022-08-07T08:46:15.465Z,1.37
2022-08-07T08:48:50.893Z,1.20
2022-08-07T08:52:12.627Z,1.10
2022-08-07T08:54:21.921Z,1.03
2022-08-07T08:56:54.631Z,1.30
2022-08-07T08:59:30.727Z,1.00
2022-08-07T09:02:16.689Z,0.90
2022-08-07T09:05:26.367Z,0.87
2022-08-07T09:08:10.402Z,0.70
2022-08-07T09:10:44.935Z,0.80
2022-08-07T09:13:19.085Z,0.80
2022-08-07T09:16:25.229Z,0.80
2022-08-07T09:19:53.438Z,0.80
2022-08-07T09:24:30.559Z,1.73
2022-08-07T09:25:17.937Z,1.20
2022-08-07T09:28:00.606Z,1.00
2022-08-07T09:30:39.296Z,0.73
2022-08-07T09:33:41.143Z,1.00
2022-08-07T09:36:12.792Z,1.10
2022-08-07T09:38:53.825Z,0.90
2022-08-07T09:41:36.292Z,0.90
2022-08-07T09:44:32.676Z,0.90
2022-08-07T09:47:52.259Z,0.90
2022-08-07T09:50:19.534Z,0.90
2022-08-07T09:52:51.743Z,0.90
2022-08-07T09:55:29.563Z,0.90
2022-08-07T09:58:42.416Z,0.80
2022-08-07T10:01:52.240Z,0.90
2022-08-07T10:04:32.939Z,0.93
2022-08-07T10:07:25.562Z,0.70
2022-08-07T10:10:06.283Z,0.70
2022-08-07T10:12:55.755Z,0.80
2022-08-07T10:15:44.515Z,0.70
2022-08-07T10:18:36.949Z,1.40
2022-08-07T10:22:15.134Z,0.80
2022-08-07T10:24:27.414Z,0.90
2022-08-07T10:27:10.547Z,1.00
2022-08-07T10:30:06.574Z,0.70
2022-08-07T10:33:06.456Z,0.80
2022-08-07T10:35:55.348Z,0.90
2022-08-07T10:38:48.238Z,0.80
2022-08-07T10:41:51.609Z,0.90
2022-08-07T10:44:37.792Z,0.90
2022-08-07T10:47:18.728Z,0.80
2022-08-07T10:49:59.766Z,0.80
2022-08-07T10:52:34.474Z,0.80
2022-08-07T10:55:27.108Z,0.80
2022-08-07T10:58:06.937Z,0.90
2022-08-07T11:00:50.267Z,0.90
2022-08-07T11:03:37.938Z,0.73
2022-08-07T11:06:23.169Z,0.70
2022-08-07T11:09:00.920Z,0.70
2022-08-07T11:11:35.641Z,0.60
2022-08-07T11:14:43.718Z,0.80
2022-08-07T11:17:07.102Z,0.90
2022-08-07T11:19:43.914Z,0.90
2022-08-07T11:22:32.229Z,0.90
2022-08-07T11:25:11.057Z,0.67
2022-08-07T11:28:02.494Z,0.90
2022-08-07T11:30:41.862Z,0.90
2022-08-07T11:33:53.352Z,1.00
2022-08-07T11:36:25.195Z,1.00
2022-08-07T11:39:00.211Z,0.80
2022-08-07T11:42:02.520Z,0.80
2022-08-07T11:44:29.344Z,0.87
2022-08-07T11:47:02.729Z,0.90
2022-08-07T11:50:30.126Z,0.70
2022-08-07T11:53:05.167Z,0.97
2022-08-07T11:56:09.555Z,0.90
2022-08-07T11:58:49.012Z,1.00
2022-08-07T12:01:59.337Z,0.80
2022-08-07T12:04:38.061Z,0.77
2022-08-07T12:07:27.250Z,0.90
2022-08-07T12:10:05.586Z,1.00
2022-08-07T12:12:39.146Z,0.97
2022-08-07T12:15:35.432Z,0.80
2022-08-07T12:18:11.348Z,0.97
2022-08-07T12:20:49.327Z,1.20
2022-08-07T12:24:05.919Z,2.87
2022-08-07T12:26:29.763Z,1.10
2022-08-07T12:29:08.734Z,1.00
2022-08-07T12:32:02.236Z,1.10
2022-08-07T12:34:33.740Z,0.90
2022-08-07T12:37:08.745Z,0.70
2022-08-07T12:39:50.545Z,0.73
2022-08-07T12:42:28.118Z,0.77
2022-08-07T12:44:59.272Z,0.80
2022-08-07T12:47:37.452Z,0.83
2022-08-07T12:50:38.697Z,0.93
2022-08-07T12:53:05.204Z,0.80
2022-08-07T12:56:02.975Z,0.90
2022-08-07T12:58:39.530Z,0.80
2022-08-07T13:01:21.872Z,0.80
2022-08-07T13:04:13.677Z,2.03
2022-08-07T13:08:13.560Z,1.83
2022-08-07T13:10:38.544Z,1.10
2022-08-07T13:13:48.212Z,0.70
2022-08-07T13:16:13.656Z,1.20
2022-08-07T13:18:50.701Z,0.77
2022-08-07T13:21:37.587Z,0.87
2022-08-07T13:24:20.835Z,0.83
2022-08-07T13:27:02.875Z,1.30
2022-08-07T13:29:42.446Z,0.80
2022-08-07T13:32:31.885Z,1.03
2022-08-07T13:35:08.758Z,0.90
2022-08-07T13:37:43.358Z,1.00
2022-08-07T13:40:35.914Z,1.00
2022-08-07T13:43:13.722Z,1.00
2022-08-07T13:46:11.145Z,0.90
2022-08-07T13:48:38.990Z,1.00
2022-08-07T13:51:27.293Z,0.90
2022-08-07T13:54:03.064Z,1.30
2022-08-07T13:56:36.119Z,1.00
2022-08-07T13:59:15.620Z,1.00
2022-08-07T14:02:03.551Z,1.10
2022-08-07T14:04:49.354Z,0.90
2022-08-07T14:07:22.946Z,1.00
2022-08-07T14:10:08.445Z,0.90
2022-08-07T14:12:54.749Z,0.80
2022-08-07T14:15:35.079Z,1.40
2022-08-07T14:18:27.531Z,1.80
2022-08-07T14:21:20.659Z,0.90
2022-08-07T14:24:01.197Z,1.00
2022-08-07T14:30:07.962Z,1.00
2022-08-07T14:32:16.149Z,0.93
2022-08-07T14:34:49.397Z,0.80
2022-08-07T14:37:36.030Z,1.03
2022-08-07T14:40:17.170Z,0.80
2022-08-07T14:43:01.483Z,1.27
2022-08-07T14:45:49.157Z,0.80
2022-08-07T14:48:21.490Z,1.00
2022-08-07T14:50:57.725Z,1.00
2022-08-07T14:54:08.615Z,2.00
2022-08-07T14:56:30.072Z,0.97
2022-08-07T14:59:02.810Z,1.00
2022-08-07T15:01:42.521Z,1.10
2022-08-07T15:07:17.765Z,0.80
2022-08-07T15:09:59.676Z,0.90
2022-08-07T15:12:34.266Z,1.10
2022-08-07T15:15:09.221Z,0.93
2022-08-07T15:17:55.895Z,1.10
2022-08-07T15:20:33.840Z,1.80
2022-08-07T15:23:21.649Z,1.13
2022-08-07T15:26:21.061Z,1.00
2022-08-07T15:32:01.853Z,1.00
2022-08-07T15:34:35.357Z,0.90
2022-08-07T15:37:06.981Z,0.90
2022-08-07T15:42:51.714Z,1.10
2022-08-07T15:48:25.765Z,1.13
2022-08-07T15:51:01.367Z,1.27
2022-08-07T15:53:42.175Z,1.10
2022-08-07T15:56:24.673Z,1.23
2022-08-07T15:58:57.901Z,0.90
2022-08-07T16:01:38.818Z,1.10
2022-08-07T16:04:14.755Z,1.17
2022-08-07T16:06:50.354Z,2.07
2022-08-07T16:09:41.967Z,1.30
2022-08-07T16:12:25.063Z,1.30
2022-08-07T16:15:42.112Z,1.00
2022-08-07T16:18:08.258Z,1.10
2022-08-07T16:21:42.982Z,1.23
2022-08-07T16:23:53.986Z,1.20
2022-08-07T16:26:36.263Z,1.10
2022-08-07T16:30:07.140Z,1.10
2022-08-07T16:32:06.224Z,0.93
2022-08-07T16:34:41.145Z,1.00
2022-08-07T16:38:06.696Z,1.13
2022-08-07T16:41:16.474Z,1.30
2022-08-07T16:44:46.405Z,1.27
2022-08-07T16:47:36.001Z,1.10
2022-08-07T16:50:35.679Z,1.30
2022-08-07T16:54:02.756Z,1.37
2022-08-07T16:56:13.654Z,1.80
2022-08-07T16:59:10.676Z,1.20
2022-08-07T17:01:50.422Z,1.00
2022-08-07T17:04:32.318Z,1.20
2022-08-07T17:07:10.192Z,1.10
2022-08-07T17:10:08.114Z,1.10
2022-08-07T17:12:46.193Z,1.10
2022-08-07T17:15:21.005Z,1.33
2022-08-07T17:18:00.114Z,3.43
2022-08-07T17:20:35.563Z,1.50
2022-08-07T17:23:16.935Z,1.10
2022-08-07T17:25:54.965Z,1.00
2022-08-07T17:28:41.288Z,1.30
2022-08-07T17:31:26.756Z,0.90
2022-08-07T17:34:18.267Z,1.17
2022-08-07T17:36:59.962Z,1.33
2022-08-07T17:39:58.458Z,1.20
2022-08-07T17:42:59.742Z,1.50
2022-08-07T17:45:35.290Z,0.87
2022-08-07T17:48:11.116Z,1.00
2022-08-07T17:50:56.431Z,1.30
2022-08-07T17:54:00.151Z,2.20
2022-08-07T17:56:31.911Z,1.17
2022-08-07T17:59:05.743Z,1.30
2022-08-07T18:01:47.335Z,1.00
2022-08-07T18:04:31.137Z,1.00
2022-08-07T18:07:20.424Z,1.10
2022-08-07T18:10:07.442Z,2.10
2022-08-07T18:12:53.016Z,1.00
2022-08-07T18:15:32.754Z,1.07
2022-08-07T18:18:46.955Z,0.90
2022-08-07T18:21:37.188Z,0.90
2022-08-07T18:24:00.970Z,1.40
2022-08-07T18:27:10.648Z,1.33
2022-08-07T18:30:31.453Z,1.70
2022-08-07T18:33:39.191Z,0.93
2022-08-07T18:36:32.821Z,1.20
2022-08-07T18:40:07.038Z,1.00
2022-08-07T18:42:13.506Z,1.17
2022-08-07T18:45:43.955Z,1.00
2022-08-07T18:48:01.456Z,1.37
2022-08-07T18:50:47.005Z,0.90
2022-08-07T18:53:36.963Z,1.00
2022-08-07T18:56:15.886Z,1.10
2022-08-07T18:58:58.352Z,0.90
2022-08-07T19:02:32.999Z,1.23
2022-08-07T19:04:38.683Z,1.00
2022-08-07T19:07:34.650Z,1.00
2022-08-07T19:10:14.831Z,1.03
2022-08-07T19:13:11.844Z,1.30
2022-08-07T19:16:04.931Z,1.23
2022-08-07T19:18:44.648Z,1.17
2022-08-07T19:21:47.466Z,1.23
2022-08-07T19:24:11.773Z,0.90
2022-08-07T19:28:30.999Z,1.30
2022-08-07T19:31:05.543Z,3.20
2022-08-07T19:32:46.934Z,1.97
2022-08-07T19:35:24.504Z,1.40
2022-08-07T19:37:58.318Z,1.53
2022-08-07T19:40:31.151Z,1.00
2022-08-07T19:43:08.397Z,0.80
2022-08-07T19:46:07.669Z,1.10
2022-08-07T19:48:42.605Z,1.00
2022-08-07T19:51:20.172Z,0.90
2022-08-07T19:54:31.046Z,1.10
2022-08-07T19:58:02.557Z,1.00
2022-08-07T19:59:41.181Z,1.10
2022-08-07T20:02:15.750Z,1.10
2022-08-07T20:04:51.827Z,0.97
2022-08-07T20:07:46.433Z,6.40
2022-08-07T20:10:36.967Z,1.30
2022-08-07T20:13:22.820Z,0.90
2022-08-07T20:15:55.240Z,0.83
2022-08-07T20:18:32.684Z,0.90
2022-08-07T20:21:20.966Z,1.00
2022-08-07T20:23:54.899Z,1.20
2022-08-07T20:26:32.233Z,1.17
2022-08-07T20:29:46.711Z,0.97
2022-08-07T20:32:00.644Z,1.10
2022-08-07T20:34:49.355Z,0.90
2022-08-07T20:37:25.202Z,0.90
2022-08-07T20:40:02.979Z,0.90
2022-08-07T20:42:35.203Z,0.80
2022-08-07T20:46:24.250Z,0.80
2022-08-07T20:47:58.381Z,1.00
2022-08-07T20:50:29.101Z,1.17
2022-08-07T20:53:00.904Z,1.13
2022-08-07T20:55:31.968Z,1.13
2022-08-07T20:58:03.270Z,1.50
2022-08-07T21:00:42.580Z,1.50
2022-08-07T21:03:14.952Z,1.30
2022-08-07T21:05:55.800Z,1.53
2022-08-07T21:08:37.002Z,1.53
2022-08-07T21:11:10.686Z,1.50
2022-08-07T21:13:57.495Z,1.50
2022-08-07T21:16:37.769Z,2.00
2022-08-07T21:19:32.145Z,1.37
2022-08-07T21:22:19.525Z,1.47
2022-08-07T21:25:12.035Z,2.20
2022-08-07T21:27:53.794Z,1.60
2022-08-07T21:30:30.115Z,1.53
2022-08-07T21:33:14.144Z,1.70
2022-08-07T21:36:05.630Z,1.93
2022-08-07T21:38:45.481Z,2.20
2022-08-07T21:41:25.760Z,1.50
2022-08-07T21:43:58.460Z,1.63
2022-08-07T21:46:37.092Z,2.20
2022-08-07T21:49:14.538Z,1.63
2022-08-07T21:51:55.704Z,1.60
2022-08-07T21:54:30.963Z,1.20
2022-08-07T21:57:30.788Z,1.37
2022-08-07T22:00:07.416Z,1.40
2022-08-07T22:02:42.848Z,1.77
2022-08-07T22:05:22.184Z,1.53
2022-08-07T22:08:03.397Z,1.47
2022-08-07T22:10:35.619Z,1.80
2022-08-07T22:13:09.398Z,1.63
2022-08-07T22:16:44.521Z,1.50
2022-08-07T22:18:37.126Z,1.40
2022-08-07T22:21:12.562Z,1.70
2022-08-07T22:23:45.581Z,1.43
2022-08-07T22:26:21.041Z,1.43
2022-08-07T22:28:58.384Z,1.47
2022-08-07T22:31:59.440Z,1.73
2022-08-07T22:34:35.603Z,1.33
2022-08-07T22:37:12.404Z,1.67
2022-08-07T22:39:53.750Z,1.20
2022-08-07T22:42:25.573Z,1.10
2022-08-07T22:45:02.258Z,1.37
2022-08-07T22:48:02.165Z,1.67
2022-08-07T22:51:06.443Z,1.40
2022-08-07T22:54:06.869Z,1.40
2022-08-07T22:56:46.818Z,1.40
2022-08-07T22:59:42.557Z,1.40
2022-08-07T23:02:40.032Z,1.87
2022-08-07T23:06:08.856Z,1.60
2022-08-07T23:08:46.096Z,1.60
2022-08-07T23:11:35.093Z,1.30
2022-08-07T23:14:26.292Z,1.40
2022-08-07T23:17:15.452Z,1.30
2022-08-07T23:20:10.052Z,1.40
2022-08-07T23:22:52.443Z,1.40
2022-08-07T23:25:34.442Z,1.10
2022-08-07T23:28:21.129Z,1.63
2022-08-07T23:31:18.603Z,1.30
2022-08-07T23:34:38.155Z,1.30
2022-08-07T23:37:22.336Z,1.20
2022-08-07T23:40:04.472Z,1.37
2022-08-07T23:42:53.424Z,1.70
2022-08-07T23:45:33.260Z,1.57
2022-08-07T23:49:02.072Z,1.80
2022-08-07T23:53:00.393Z,2.07
2022-08-07T23:54:43.824Z,1.43
2022-08-07T23:57:20.325Z,1.20
